Time;durP1;ratioP1;P1;durP2;ratioP2;P2;SDS_P1;SDS_P2;PMS_P1;PMS_P2;Temp;Humidity;BMP_temperature;BMP_pressure;BME280_temperature;BME280_humidity;BME280_pressure;Samples;Min_cycle;Max_cycle;Signal;HPM_P1;HPM_P2
2021/05/26 00:00:58;;;;;;;3.55;1.77;;;;;;;8.31;62.18;100338.50;2198803;80;27504;-60
2021/05/26 00:04:00;;;;;;;4.58;2.10;;;;;;;8.30;62.47;100341.25;2198471;80;29370;-60
2021/05/26 00:07:02;;;;;;;3.87;1.52;;;;;;;8.29;62.42;100352.85;2198399;80;31784;-59
2021/05/26 00:10:06;;;;;;;3.15;1.70;;;;;;;8.28;62.55;100338.63;2198359;80;33931;-60
2021/05/26 00:13:08;;;;;;;4.53;1.40;;;;;;;8.27;62.39;100334.24;2196093;80;30096;-60
2021/05/26 00:16:10;;;;;;;2.77;1.87;;;;;;;8.26;62.52;100333.84;2188452;81;27648;-60
2021/05/26 00:19:13;;;;;;;3.10;1.75;;;;;;;8.26;62.80;100335.62;2188401;81;28697;-60
2021/05/26 00:22:15;;;;;;;2.58;1.32;;;;;;;8.25;62.60;100348.55;2188266;81;31811;-59
2021/05/26 00:25:16;;;;;;;5.60;1.80;;;;;;;8.24;62.67;100339.70;2188428;81;33685;-60
2021/05/26 00:28:18;;;;;;;3.17;1.80;;;;;;;8.23;62.71;100347.74;2188288;81;30469;-60
2021/05/26 00:31:22;;;;;;;2.92;1.50;;;;;;;8.20;62.90;100346.93;2188601;81;27604;-60
2021/05/26 00:34:24;;;;;;;2.15;1.25;;;;;;;8.19;62.87;100344.33;2188280;81;30752;-61
2021/05/26 00:37:26;;;;;;;2.42;1.40;;;;;;;8.18;62.99;100344.81;2188166;81;30983;-61
2021/05/26 00:40:28;;;;;;;3.35;1.60;;;;;;;8.19;62.99;100347.00;2188183;81;33748;-61
2021/05/26 00:43:29;;;;;;;1.82;1.30;;;;;;;8.18;62.96;100347.93;2188201;81;30343;-61
2021/05/26 00:46:42;;;;;;;2.25;1.47;;;;;;;8.18;63.00;100347.93;2188253;81;27605;-61
2021/05/26 00:49:48;;;;;;;4.05;1.55;;;;;;;8.17;63.08;100343.52;2187263;81;28846;-63
2021/05/26 00:52:52;;;;;;;3.40;1.42;;;;;;;8.17;63.20;100340.41;2188052;81;31926;-62
2021/05/26 00:55:53;;;;;;;3.77;1.42;;;;;;;8.17;63.14;100331.06;2188159;81;34188;-60
2021/05/26 00:58:55;;;;;;;1.90;1.20;;;;;;;8.19;63.21;100324.32;2188559;81;29733;-60
2021/05/26 01:01:57;;;;;;;2.87;1.60;;;;;;;8.20;63.21;100314.05;2188613;81;27607;-60
2021/05/26 01:04:59;;;;;;;3.08;2.00;;;;;;;8.21;63.28;100317.98;2188543;81;28252;-60
2021/05/26 01:08:01;;;;;;;4.15;1.65;;;;;;;8.21;63.29;100323.31;2188374;81;31324;-60
2021/05/26 01:11:05;;;;;;;3.05;1.00;;;;;;;8.24;63.25;100317.46;2188354;81;32981;-60
2021/05/26 01:14:06;;;;;;;5.28;1.57;;;;;;;8.25;63.44;100316.08;2192911;79;29389;-64
2021/05/26 01:17:08;;;;;;;2.52;1.20;;;;;;;8.26;63.37;100321.83;2198532;80;27631;-60
2021/05/26 01:20:21;;;;;;;3.65;1.27;;;;;;;8.27;63.47;100320.90;2198643;80;29161;-60
2021/05/26 01:23:23;;;;;;;2.72;1.62;;;;;;;8.26;63.75;100325.83;2198688;80;31702;-60
2021/05/26 01:26:25;;;;;;;4.62;1.52;;;;;;;8.26;63.61;100325.83;2198603;80;33345;-61
2021/05/26 01:29:27;;;;;;;1.85;1.20;;;;;;;8.23;63.69;100313.05;2198538;80;29708;-60
2021/05/26 01:32:29;;;;;;;4.70;1.85;;;;;;;8.20;63.80;100317.57;2198723;80;28132;-69
2021/05/26 01:35:30;;;;;;;2.12;1.20;;;;;;;8.19;63.91;100328.32;2198627;80;29739;-69
2021/05/26 01:38:32;;;;;;;3.87;1.52;;;;;;;8.15;64.14;100313.35;2198455;80;32151;-68
2021/05/26 01:41:34;;;;;;;2.33;1.50;;;;;;;8.11;64.09;100311.76;2198148;80;32738;-62
2021/05/26 01:44:36;;;;;;;3.95;1.35;;;;;;;8.05;64.12;100319.06;2198432;80;30124;-69
2021/05/26 01:47:38;;;;;;;5.47;1.65;;;;;;;8.01;64.25;100324.11;2198110;80;27731;-68
2021/05/26 01:50:41;;;;;;;4.05;1.65;;;;;;;7.98;64.31;100322.03;2198579;80;29001;-70
2021/05/26 01:53:43;;;;;;;4.03;1.85;;;;;;;7.92;64.34;100321.80;2198585;80;30988;-60
2021/05/26 01:56:46;;;;;;;4.62;1.85;;;;;;;7.89;64.48;100327.25;2198792;80;32744;-67
2021/05/26 01:59:48;;;;;;;5.60;1.77;;;;;;;7.85;64.66;100323.84;2198697;80;30546;-69
2021/05/26 02:02:50;;;;;;;3.52;1.72;;;;;;;7.83;64.88;100332.36;2198705;80;27563;-62
2021/05/26 02:05:53;;;;;;;4.50;1.60;;;;;;;7.83;64.93;100331.03;2198601;80;29292;-68
2021/05/26 02:08:55;;;;;;;3.60;1.57;;;;;;;7.84;65.11;100331.44;2198357;80;31738;-69
2021/05/26 02:15:17;;;;;;;7.40;1.90;;;;;;;7.94;65.27;100334.63;2198134;80;29371;-69
2021/05/26 02:18:19;;;;;;;2.15;1.50;;;;;;;7.99;65.50;100326.44;2198631;80;27565;-72
2021/05/26 02:21:21;;;;;;;5.03;1.62;;;;;;;8.03;65.42;100326.70;2198617;80;29936;-61
2021/05/26 02:24:22;;;;;;;5.70;2.00;;;;;;;8.06;65.46;100334.14;2198773;80;31943;-60
2021/05/26 02:27:24;;;;;;;5.17;2.15;;;;;;;8.09;65.50;100337.15;2198600;80;33344;-70
2021/05/26 02:30:27;;;;;;;6.65;1.90;;;;;;;8.12;65.43;100340.15;2198741;80;29674;-67
2021/05/26 02:33:29;;;;;;;2.95;1.95;;;;;;;8.14;65.48;100345.85;2198659;80;27583;-66
2021/05/26 02:36:31;;;;;;;4.20;2.10;;;;;;;8.17;65.55;100352.41;2198621;80;29723;-71
2021/05/26 02:39:33;;;;;;;3.62;1.60;;;;;;;8.20;65.52;100347.41;2198757;80;31023;-62
2021/05/26 02:42:35;;;;;;;6.62;2.17;;;;;;;8.20;65.43;100354.08;2198476;80;33633;-70
2021/05/26 02:45:37;;;;;;;3.40;1.50;;;;;;;8.20;65.55;100348.27;2198774;80;29739;-61
2021/05/26 02:48:39;;;;;;;5.70;2.02;;;;;;;8.23;65.56;100347.74;2198665;80;27615;-70
2021/05/26 02:51:41;;;;;;;7.80;1.87;;;;;;;8.26;65.68;100345.84;2198628;80;28726;-65
2021/05/26 02:54:43;;;;;;;2.52;1.52;;;;;;;8.31;65.69;100337.65;2198275;80;31876;-70
2021/05/26 02:57:45;;;;;;;6.67;1.75;;;;;;;8.35;65.65;100343.28;2198585;80;33201;-61
2021/05/26 03:00:47;;;;;;;3.25;1.90;;;;;;;8.40;65.68;100341.75;2198408;80;29489;-62
2021/05/26 03:03:48;;;;;;;5.87;2.20;;;;;;;8.46;65.67;100342.82;2198326;80;27970;-69
2021/05/26 03:06:50;;;;;;;2.80;1.77;;;;;;;8.52;65.71;100338.62;2198366;79;29719;-61
2021/05/26 03:09:52;;;;;;;4.78;1.60;;;;;;;8.58;65.72;100343.72;2196854;80;30767;-71
2021/05/26 03:12:56;;;;;;;4.03;1.82;;;;;;;8.62;65.56;100342.64;2194232;81;33334;-71
2021/05/26 03:15:58;;;;;;;5.72;1.72;;;;;;;8.65;65.48;100344.33;2185754;81;30231;-61
2021/05/26 03:19:00;;;;;;;4.12;2.05;;;;;;;8.71;65.65;100333.86;2186394;81;27488;-61
2021/05/26 03:22:02;;;;;;;6.30;2.60;;;;;;;8.77;65.45;100340.30;2188329;81;29453;-70
2021/05/26 03:25:06;;;;;;;2.92;1.65;;;;;;;8.82;65.31;100339.61;2188251;81;32188;-72
2021/05/26 03:28:08;;;;;;;3.60;2.00;;;;;;;8.88;65.42;100338.48;2188382;81;32404;-68
2021/05/26 03:31:10;;;;;;;5.50;2.00;;;;;;;8.95;65.50;100337.30;2188356;81;30444;-68
2021/05/26 03:34:12;;;;;;;9.70;2.20;;;;;;;9.04;65.46;100342.73;2188300;81;27583;-62
2021/05/26 03:37:14;;;;;;;5.87;1.95;;;;;;;9.11;65.38;100342.84;2188372;81;29760;-59
2021/05/26 03:40:18;;;;;;;5.67;2.05;;;;;;;9.19;65.15;100334.50;2188313;81;32124;-58
2021/05/26 03:43:20;;;;;;;3.20;1.82;;;;;;;9.30;65.18;100340.72;2188400;81;33288;-58
2021/05/26 03:46:22;;;;;;;5.28;1.72;;;;;;;9.42;65.20;100342.39;2188077;81;29103;-59
2021/05/26 03:49:24;;;;;;;9.18;1.67;;;;;;;9.55;65.00;100344.52;2187326;81;27635;-58
2021/05/26 03:52:25;;;;;;;4.62;1.52;;;;;;;9.68;64.75;100337.66;2184351;81;29737;-66
2021/05/26 03:55:28;;;;;;;3.20;1.52;;;;;;;9.80;64.53;100330.05;2183546;81;31352;-58
2021/05/26 03:58:31;;;;;;;5.15;1.67;;;;;;;9.95;64.67;100328.45;2184508;81;33282;-61
2021/05/26 04:01:33;;;;;;;5.50;1.72;;;;;;;10.11;64.41;100329.95;2187472;81;29690;-67
2021/05/26 04:04:37;;;;;;;2.52;1.52;;;;;;;10.29;64.42;100318.36;2188493;81;27599;-59
2021/05/26 04:07:38;;;;;;;5.72;1.42;;;;;;;10.45;63.94;100313.62;2188135;81;29020;-59
2021/05/26 04:10:40;;;;;;;2.75;1.47;;;;;;;10.56;63.61;100313.96;2187902;81;32096;-60
2021/05/26 04:13:41;;;;;;;5.53;1.50;;;;;;;10.69;63.69;100315.56;2166179;81;33584;-59
2021/05/26 04:16:43;;;;;;;5.12;1.60;;;;;;;10.82;63.33;100316.28;2188155;81;30601;-68
2021/05/26 04:19:45;;;;;;;2.08;1.57;;;;;;;10.98;63.28;100312.36;2188539;81;27718;-60
2021/05/26 04:22:47;;;;;;;2.37;1.50;;;;;;;11.17;63.06;100313.12;2185515;81;29682;-60
2021/05/26 04:25:51;;;;;;;5.15;1.62;;;;;;;11.34;62.90;100310.03;2183191;81;31440;-61
2021/05/26 04:28:52;;;;;;;2.83;1.30;;;;;;;11.53;62.68;100313.97;2184718;81;32708;-67
2021/05/26 04:31:57;;;;;;;2.95;1.65;;;;;;;11.74;62.08;100304.37;2184316;81;30443;-59
2021/05/26 04:34:58;;;;;;;2.35;1.30;;;;;;;11.93;61.82;100309.59;2184475;81;27640;-66
2021/05/26 04:38:01;;;;;;;5.37;1.17;;;;;;;12.09;61.04;100317.21;2183719;81;28596;-65
2021/05/26 04:41:05;;;;;;;2.47;1.22;;;;;;;12.17;60.69;100318.13;2187807;81;32066;-60
2021/05/26 04:44:07;;;;;;;3.73;1.50;;;;;;;12.33;60.51;100316.77;2188678;81;33689;-59
2021/05/26 04:47:09;;;;;;;4.33;1.37;;;;;;;12.49;59.93;100306.02;2188302;81;29692;-60
2021/05/26 04:50:12;;;;;;;4.22;1.30;;;;;;;12.84;59.75;100299.06;2188529;81;27579;-60
2021/05/26 04:53:14;;;;;;;6.37;1.35;;;;;;;13.41;59.88;100299.31;2188449;81;29741;-61
2021/05/26 04:56:16;;;;;;;1.45;0.93;;;;;;;14.70;59.88;100286.61;2188382;81;32278;-63
2021/05/26 04:59:17;;;;;;;3.98;1.12;;;;;;;15.95;58.05;100287.41;2188092;81;32947;-60
2021/05/26 05:02:19;;;;;;;3.12;1.20;;;;;;;16.54;56.90;100291.23;2188391;81;29674;-62
2021/05/26 05:05:21;;;;;;;5.40;1.60;;;;;;;17.53;56.20;100283.31;2188628;81;27609;-60
2021/05/26 05:08:23;;;;;;;2.17;1.25;;;;;;;18.16;54.35;100285.02;2188414;81;29005;-60
2021/05/26 05:11:25;;;;;;;3.27;1.35;;;;;;;18.33;53.72;100285.48;2188362;81;31828;-60
2021/05/26 05:14:27;;;;;;;4.00;1.22;;;;;;;18.37;52.02;100286.45;2188775;79;32808;-60
2021/05/26 05:17:28;;;;;;;3.87;0.95;;;;;;;18.88;51.86;100294.06;2191922;81;30133;-60
2021/05/26 05:20:32;;;;;;;7.05;1.02;;;;;;;19.66;50.81;100293.23;2191714;81;27502;-60
2021/05/26 05:23:34;;;;;;;4.87;1.10;;;;;;;20.44;50.02;100287.23;2191881;81;28615;-68
2021/05/26 05:26:36;;;;;;;2.00;1.20;;;;;;;20.88;48.80;100289.59;2191893;81;31757;-67
2021/05/26 05:29:38;;;;;;;3.35;1.37;;;;;;;21.23;47.25;100292.21;2192028;81;32931;-71
2021/05/26 05:32:40;;;;;;;3.05;1.15;;;;;;;21.52;46.56;100284.95;2191864;81;30341;-71
2021/05/26 05:35:42;;;;;;;1.90;1.25;;;;;;;21.88;45.89;100278.32;2192128;81;27532;-61
2021/05/26 05:38:44;;;;;;;3.83;1.27;;;;;;;22.02;45.51;100290.61;2191875;81;28595;-61
2021/05/26 05:41:46;;;;;;;3.05;1.00;;;;;;;21.96;44.68;100281.66;2190743;81;32040;-61
2021/05/26 05:44:48;;;;;;;2.17;1.10;;;;;;;21.76;44.14;100289.92;2183446;79;33321;-71
2021/05/26 05:47:50;;;;;;;2.50;1.10;;;;;;;21.44;43.76;100282.96;2210764;79;29331;-71
2021/05/26 05:50:51;;;;;;;4.22;1.20;;;;;;;21.12;43.30;100275.16;2196207;79;28333;-60
2021/05/26 05:53:53;;;;;;;4.70;1.25;;;;;;;21.03;43.20;100283.18;2212518;79;28583;-62
2021/05/26 05:56:55;;;;;;;3.40;1.42;;;;;;;21.63;43.66;100277.13;2221815;79;32176;-61
2021/05/26 05:59:57;;;;;;;6.53;1.20;;;;;;;22.45;41.23;100274.59;2221434;80;32746;-61
2021/05/26 06:02:58;;;;;;;3.17;1.50;;;;;;;23.12;42.16;100271.94;2210173;79;29684;-61
2021/05/26 06:06:00;;;;;;;7.47;1.72;;;;;;;23.95;41.48;100276.07;2183088;81;27530;-62
2021/05/26 06:09:01;;;;;;;2.25;1.40;;;;;;;24.77;40.80;100267.25;2184044;81;28654;-63
2021/05/26 06:12:05;;;;;;;4.53;1.32;;;;;;;25.46;38.53;100271.02;2190958;81;31596;-64
2021/05/26 06:15:08;;;;;;;2.20;1.43;;;;;;;26.49;37.02;100268.91;2193080;80;33057;-63
2021/05/26 06:18:10;;;;;;;3.85;1.12;;;;;;;26.49;37.02;100268.91;2194563;81;30080;-63
2021/05/26 06:21:12;;;;;;;4.03;1.22;;;;;;;26.76;36.90;100270.77;2196350;81;28127;-62
2021/05/26 06:24:13;;;;;;;7.08;1.70;;;;;;;27.16;36.62;100268.77;2196197;81;28340;-63
2021/05/26 06:27:15;;;;;;;2.90;1.20;;;;;;;27.73;36.35;100271.97;2132542;81;30875;-62
2021/05/26 06:30:18;;;;;;;2.90;1.25;;;;;;;27.88;34.78;100277.48;2133527;81;33297;-62
2021/05/26 06:33:19;;;;;;;3.25;1.55;;;;;;;27.92;34.90;100277.44;2189893;81;30075;-62
2021/05/26 06:36:21;;;;;;;2.62;1.22;;;;;;;27.99;34.11;100278.91;2156081;82;28251;-63
2021/05/26 06:39:22;;;;;;;3.98;1.30;;;;;;;28.09;33.50;100285.50;2150115;82;29806;-65
2021/05/26 06:42:25;;;;;;;4.45;1.45;;;;;;;27.79;32.82;100277.27;2156312;82;31405;-63
2021/05/26 06:45:27;;;;;;;3.08;1.40;;;;;;;27.40;32.36;100279.17;2156222;82;33297;-68
2021/05/26 06:48:28;;;;;;;3.87;1.10;;;;;;;27.00;31.74;100275.25;2158234;82;29116;-63
2021/05/26 06:51:31;;;;;;;4.40;1.70;;;;;;;26.48;32.09;100276.27;2155985;82;28153;-61
2021/05/26 06:54:33;;;;;;;3.33;1.12;;;;;;;26.24;32.44;100281.39;2157417;81;28643;-64
2021/05/26 06:57:34;;;;;;;3.45;1.20;;;;;;;25.95;32.40;100284.25;2157614;82;31402;-63
2021/05/26 07:00:36;;;;;;;3.77;1.47;;;;;;;25.63;31.79;100281.95;2157847;82;34076;-66
2021/05/26 07:03:38;;;;;;;3.75;1.50;;;;;;;25.47;32.88;100287.81;2122102;81;30657;-64
2021/05/26 07:06:40;;;;;;;8.68;1.47;;;;;;;25.40;32.62;100279.05;2120583;83;28057;-64
2021/05/26 07:09:42;;;;;;;1.77;0.93;;;;;;;25.42;32.09;100266.91;2152617;81;28825;-72
2021/05/26 07:12:46;;;;;;;4.95;1.67;;;;;;;25.52;32.09;100259.02;2194949;81;31803;-64
2021/05/26 07:15:48;;;;;;;3.27;1.52;;;;;;;25.57;32.37;100260.20;2130686;81;32986;-61
2021/05/26 07:18:51;;;;;;;4.67;1.75;;;;;;;25.53;31.38;100259.36;2151499;82;29327;-63
2021/05/26 07:21:54;;;;;;;4.90;1.42;;;;;;;25.45;32.38;100263.81;2186766;79;28208;-66
2021/05/26 07:24:56;;;;;;;2.83;1.30;;;;;;;25.29;31.48;100274.78;2226076;79;29125;-63
2021/05/26 07:27:58;;;;;;;4.40;1.60;;;;;;;24.87;32.03;100272.08;2190407;81;31036;-64
2021/05/26 07:30:59;;;;;;;6.78;1.98;;;;;;;24.60;31.80;100266.86;2190604;79;34060;-62
2021/05/26 07:34:03;;;;;;;5.03;1.70;;;;;;;24.40;32.42;100267.19;2211818;79;29330;-66
2021/05/26 07:37:07;;;;;;;3.73;1.50;;;;;;;24.46;32.84;100269.23;2190558;81;27653;-68
2021/05/26 07:40:11;;;;;;;4.83;2.60;;;;;;;24.60;31.86;100262.25;2190509;81;28708;-69
2021/05/26 07:43:12;;;;;;;5.87;1.20;;;;;;;24.48;31.96;100269.09;2192867;79;31821;-64
2021/05/26 07:46:14;;;;;;;5.92;1.42;;;;;;;24.37;32.16;100266.99;2188959;81;33748;-62
2021/05/26 07:49:16;;;;;;;3.67;1.72;;;;;;;24.06;31.47;100272.22;2190042;81;31422;-63
2021/05/26 07:52:22;;;;;;;4.00;1.65;;;;;;;23.81;31.87;100269.33;2213204;79;27680;-67
2021/05/26 07:55:24;;;;;;;2.95;1.35;;;;;;;23.70;32.03;100267.73;2194210;79;28602;-65
2021/05/26 07:58:25;;;;;;;2.92;1.30;;;;;;;23.45;32.12;100267.61;2196475;79;31369;-65
2021/05/26 08:01:29;;;;;;;3.87;1.95;;;;;;;23.50;32.78;100269.33;2228629;79;33721;-65
2021/05/26 08:04:34;;;;;;;12.18;1.77;;;;;;;23.58;32.79;100274.52;2204766;79;29338;-67
2021/05/26 08:07:36;;;;;;;4.75;1.25;;;;;;;23.53;32.39;100268.16;2163584;81;27612;-68
2021/05/26 08:10:38;;;;;;;4.28;1.77;;;;;;;23.41;31.97;100274.41;2195953;80;28674;-67
2021/05/26 08:13:41;;;;;;;3.50;1.75;;;;;;;23.29;32.00;100266.13;2209706;80;31740;-69
2021/05/26 08:16:51;;;;;;;4.85;1.50;;;;;;;23.34;32.53;100261.89;2180730;80;32976;-67
2021/05/26 08:19:54;;;;;;;5.00;1.40;;;;;;;23.67;33.02;100263.45;2179253;81;30541;-67
2021/05/26 08:22:56;;;;;;;3.77;1.42;;;;;;;23.77;31.84;100256.99;2148654;81;27561;-63
2021/05/26 08:25:57;;;;;;;8.50;1.50;;;;;;;23.82;32.45;100264.20;2148538;82;27892;-61
2021/05/26 08:29:01;;;;;;;6.03;1.60;;;;;;;23.89;31.53;100266.65;2147660;82;31444;-68
2021/05/26 08:32:05;;;;;;;3.02;1.22;;;;;;;23.75;31.86;100257.17;2191200;80;32945;-62
2021/05/26 08:35:09;;;;;;;2.98;1.35;;;;;;;23.78;32.56;100263.69;2166785;81;29813;-66
2021/05/26 08:38:11;;;;;;;3.05;1.15;;;;;;;23.78;32.23;100251.38;2188198;81;27636;-68
2021/05/26 08:41:19;;;;;;;3.47;1.10;;;;;;;23.97;32.55;100254.39;2148411;82;29255;-62
2021/05/26 08:44:22;;;;;;;4.97;1.47;;;;;;;24.05;31.55;100247.24;2152163;81;30973;-66
2021/05/26 08:47:27;;;;;;;3.52;1.62;;;;;;;24.16;32.15;100248.82;2170512;81;33044;-68
2021/05/26 08:50:29;;;;;;;3.00;1.30;;;;;;;24.55;31.94;100246.34;2173468;81;30463;-64
2021/05/26 08:53:31;;;;;;;3.02;1.22;;;;;;;24.96;31.91;100229.08;2227358;79;27698;-65
2021/05/26 08:56:33;;;;;;;4.42;2.08;;;;;;;25.22;31.37;100238.98;2227176;79;28525;-64
2021/05/26 08:59:35;;;;;;;7.03;1.67;;;;;;;25.26;30.26;100225.77;2227172;79;31011;-63
2021/05/26 09:02:37;;;;;;;2.45;1.40;;;;;;;25.23;30.57;100237.11;2201482;79;32337;-68
2021/05/26 09:05:39;;;;;;;2.40;1.20;;;;;;;25.54;30.90;100227.63;2186285;81;30217;-60
2021/05/26 09:08:50;;;;;;;5.78;1.62;;;;;;;25.78;30.23;100223.93;2188109;81;28127;-65
2021/05/26 09:11:52;;;;;;;2.72;1.40;;;;;;;25.91;30.49;100217.88;2188237;81;29855;-62
2021/05/26 09:15:09;;;;;;;4.17;1.50;;;;;;;26.02;30.73;100212.52;2188127;81;32116;-62
2021/05/26 09:18:10;;;;;;;4.85;1.22;;;;;;;26.33;30.62;100213.55;2163408;81;33650;-65
2021/05/26 09:21:12;;;;;;;5.35;2.20;;;;;;;26.68;30.53;100209.85;2184168;81;30407;-66
2021/05/26 09:24:25;;;;;;;2.98;1.50;;;;;;;27.07;30.66;100203.86;2184130;81;27571;-63
2021/05/26 09:27:27;;;;;;;5.83;1.42;;;;;;;27.33;29.35;100201.20;2184200;81;28653;-66
2021/05/26 09:30:34;;;;;;;4.25;1.50;;;;;;;27.33;29.62;100195.17;2184257;81;30993;-68
2021/05/26 09:33:45;;;;;;;4.65;1.50;;;;;;;27.43;29.02;100198.51;2184044;81;34129;-68
2021/05/26 09:36:47;;;;;;;5.50;1.50;;;;;;;27.59;29.23;100203.52;2184075;81;30122;-61
2021/05/26 09:40:06;;;;;;;2.77;1.37;;;;;;;27.73;28.96;100195.77;2156469;81;27571;-65
2021/05/26 09:43:09;;;;;;;4.03;1.45;;;;;;;27.86;28.81;100192.84;2131189;82;28677;-61
2021/05/26 09:46:22;;;;;;;4.00;1.40;;;;;;;27.89;28.27;100185.58;2228418;79;30974;-65
2021/05/26 09:49:26;;;;;;;2.65;1.25;;;;;;;27.81;28.68;100183.80;2196112;81;32930;-62
2021/05/26 09:52:29;;;;;;;4.85;1.50;;;;;;;27.66;27.88;100184.34;2228491;79;29737;-67
2021/05/26 09:55:38;;;;;;;6.17;1.40;;;;;;;26.96;27.27;100177.70;2193835;79;28151;-76
2021/05/26 09:58:42;;;;;;;3.33;1.40;;;;;;;26.51;27.57;100180.30;2186477;81;28604;-77
2021/05/26 10:01:43;;;;;;;5.13;1.60;;;;;;;26.31;28.46;100168.95;2137667;82;31712;-79
2021/05/26 10:04:46;;;;;;;4.87;1.40;;;;;;;26.27;28.68;100165.69;2152534;82;33649;-75
2021/05/26 10:07:56;;;;;;;3.15;1.30;;;;;;;26.31;28.14;100175.28;2182317;79;29916;-73
2021/05/26 10:10:58;;;;;;;3.08;1.30;;;;;;;26.12;28.02;100178.50;2189987;81;27560;-74
2021/05/26 10:14:12;;;;;;;4.05;1.50;;;;;;;25.84;28.10;100177.61;2190534;81;28619;-60
2021/05/26 10:17:20;;;;;;;6.70;1.67;;;;;;;25.51;28.63;100175.01;2208133;79;31558;-61
2021/05/26 10:20:38;;;;;;;5.15;1.82;;;;;;;25.33;28.85;100171.95;2192070;81;32966;-61
2021/05/26 10:23:39;;;;;;;3.08;1.35;;;;;;;25.10;28.60;100174.59;2229426;79;29448;-63
2021/05/26 10:26:56;;;;;;;6.15;1.72;;;;;;;24.79;28.96;100166.56;2238006;79;27586;-61
2021/05/26 10:30:01;;;;;;;4.25;1.60;;;;;;;24.65;29.55;100174.08;2196270;81;27624;-60
2021/05/26 10:33:05;;;;;;;1.80;1.02;;;;;;;24.56;29.08;100178.70;2194183;79;30971;-65
2021/05/26 10:36:10;;;;;;;4.55;1.22;;;;;;;24.57;29.15;100165.35;2202250;79;30001;-65
2021/05/26 10:39:16;;;;;;;4.08;1.00;;;;;;;24.50;29.29;100173.89;2207368;79;29335;-65
2021/05/26 10:42:30;;;;;;;4.35;1.30;;;;;;;24.45;29.17;100176.31;2168647;81;27633;-64
2021/05/26 10:45:35;;;;;;;;;;;;;;;24.34;29.69;100170.66;2200765;80;29075;-64
2021/05/26 10:48:53;;;;;;;5.15;1.32;;;;;;;24.32;29.12;100163.12;2225958;79;30990;-76
2021/05/26 10:51:57;;;;;;;6.62;1.70;;;;;;;24.05;29.51;100158.30;2237681;79;32940;-76
2021/05/26 10:54:59;;;;;;;8.95;1.32;;;;;;;24.02;29.84;100159.47;2185267;81;29365;-75
2021/05/26 10:58:36;;;;;;;3.30;1.15;;;;;;;23.99;29.88;100167.17;2194917;81;27660;-74
2021/05/26 11:01:31;;;;;;;3.20;1.25;;;;;;;23.88;30.09;100156.86;2203178;79;29229;-74
2021/05/26 11:04:35;;;;;;;3.12;1.05;;;;;;;23.74;29.70;100154.24;2154550;81;30960;-74
2021/05/26 11:07:40;;;;;;;4.03;1.00;;;;;;;23.60;30.47;100158.98;2187255;81;33700;-74
2021/05/26 11:10:43;;;;;;;3.75;1.35;;;;;;;23.57;30.39;100162.91;2187776;81;44532;-76
2021/05/26 11:14:14;;;;;;;4.55;1.20;;;;;;;23.51;30.43;100154.83;2188606;81;28272;-60
2021/05/26 11:17:19;;;;;;;2.92;1.40;;;;;;;23.49;30.47;100147.33;2184271;80;30107;-60
2021/05/26 11:20:22;;;;;;;2.58;1.20;;;;;;;23.38;30.04;100150.86;2148698;82;31102;-60
2021/05/26 11:23:27;;;;;;;3.02;1.00;;;;;;;23.21;30.30;100146.16;2182276;81;33575;-60
2021/05/26 11:26:38;;;;;;;3.17;1.12;;;;;;;23.22;30.68;100144.30;2194014;80;29934;-62
2021/05/26 11:29:40;;;;;;;8.10;1.82;;;;;;;23.39;31.30;100134.80;2166927;81;27601;-60
2021/05/26 11:32:43;;;;;;;5.50;1.60;;;;;;;23.57;31.07;100127.86;2188377;81;28649;-59
2021/05/26 11:35:48;;;;;;;5.17;1.30;;;;;;;23.61;31.10;100127.35;2184086;81;31546;-59
2021/05/26 11:38:53;;;;;;;4.47;1.35;;;;;;;23.60;31.14;100117.96;2144399;82;33783;-60
2021/05/26 11:42:12;;;;;;;4.80;1.40;;;;;;;23.38;31.10;100116.16;2146800;82;30052;-60
2021/05/26 11:45:14;;;;;;;1.72;0.95;;;;;;;23.17;30.95;100116.55;2188215;81;27576;-63
2021/05/26 11:48:22;;;;;;;3.08;1.17;;;;;;;22.82;30.99;100113.81;2148754;82;28969;-61
2021/05/26 11:51:27;;;;;;;4.95;1.37;;;;;;;22.61;31.22;100110.93;2148498;82;32189;-59
2021/05/26 11:54:29;;;;;;;4.67;1.65;;;;;;;22.34;30.97;100110.51;2147888;82;33036;-60
2021/05/26 11:57:40;;;;;;;3.45;1.40;;;;;;;22.21;31.44;100097.78;2148639;82;29344;-61
2021/05/26 12:00:42;;;;;;;2.27;1.00;;;;;;;22.22;31.83;100083.97;2171091;82;27649;-60
2021/05/26 12:03:45;;;;;;;2.60;1.30;;;;;;;22.15;31.46;100088.36;2148679;82;29361;-61
2021/05/26 12:06:48;;;;;;;3.62;1.70;;;;;;;22.00;32.00;100073.03;2188616;81;31552;-60
2021/05/26 12:10:00;;;;;;;3.27;1.10;;;;;;;21.91;31.86;100080.28;2209602;80;33044;-64
2021/05/26 12:13:04;;;;;;;3.10;1.40;;;;;;;21.78;31.65;100066.18;2183219;81;27665;-61
2021/05/26 12:16:12;;;;;;;2.83;1.02;;;;;;;21.77;32.21;100072.13;2188048;81;27641;-67
2021/05/26 12:19:14;;;;;;;5.00;1.47;;;;;;;21.95;31.97;100071.27;2187575;81;29652;-61
2021/05/26 12:22:19;;;;;;;4.10;1.20;;;;;;;22.14;32.20;100062.09;2199453;80;31370;-61
2021/05/26 12:25:21;;;;;;;;;;;;;;;22.28;31.70;100064.25;2209321;80;32934;-61
2021/05/26 12:28:26;;;;;;;4.08;1.50;;;;;;;22.37;31.64;100051.52;2166181;81;29515;-59
2021/05/26 12:31:32;;;;;;;5.53;1.15;;;;;;;22.46;31.42;100060.66;2166114;81;27696;-59
2021/05/26 12:34:34;;;;;;;4.35;1.02;;;;;;;22.46;30.88;100057.41;2151365;82;29719;-61
2021/05/26 12:37:43;;;;;;;2.62;0.95;;;;;;;22.53;31.22;100054.88;2148538;82;32306;-61
2021/05/26 12:40:46;;;;;;;5.60;1.30;;;;;;;22.61;31.00;100047.26;2176418;81;33739;-61
2021/05/26 12:43:51;;;;;;;4.25;0.80;;;;;;;22.70;31.07;100039.97;2225325;80;29373;-60
2021/05/26 12:47:20;;;;;;;2.90;1.00;;;;;;;22.81;31.10;100040.20;2227473;79;27868;-60
2021/05/26 12:50:30;;;;;;;3.45;1.25;;;;;;;22.97;30.82;100032.61;2120588;83;29307;-60
2021/05/26 12:53:33;;;;;;;4.10;1.27;;;;;;;23.07;31.11;100029.23;2111655;84;32159;-60
2021/05/26 12:56:35;;;;;;;4.03;1.00;;;;;;;23.17;31.11;100034.05;2111758;84;33550;-62
2021/05/26 12:59:41;;;;;;;4.70;1.47;;;;;;;23.11;30.24;100033.36;2115123;84;29357;-61
2021/05/26 13:02:46;;;;;;;5.87;1.30;;;;;;;22.96;29.74;100035.84;2155425;82;27894;-61
2021/05/26 13:05:50;;;;;;;6.85;1.52;;;;;;;22.72;29.86;100033.84;2116979;84;28601;-61
2021/05/26 13:09:06;;;;;;;5.50;1.20;;;;;;;22.52;30.26;100025.88;2116536;84;31000;-62
2021/05/26 13:12:08;;;;;;;2.30;1.02;;;;;;;22.40;30.59;100022.55;2151502;82;32966;-60
2021/05/26 13:15:33;;;;;;;3.70;1.17;;;;;;;22.25;30.34;100037.79;2152001;82;30643;-60
2021/05/26 13:18:35;;;;;;;3.85;1.50;;;;;;;22.09;30.45;100033.05;2152041;82;31534;-61
2021/05/26 13:21:47;;;;;;;2.87;0.98;;;;;;;21.96;30.95;100031.59;2157359;82;30025;-60
2021/05/26 13:24:50;;;;;;;5.58;1.02;;;;;;;21.83;30.48;100037.95;2118813;84;32138;-60
2021/05/26 13:27:54;;;;;;;8.13;1.62;;;;;;;21.72;30.83;100029.48;2119380;84;32947;-60
2021/05/26 13:30:59;;;;;;;2.57;1.20;;;;;;;21.72;31.08;100036.80;2158520;82;29665;-60
2021/05/26 13:34:01;;;;;;;1.62;1.25;;;;;;;21.75;31.20;100040.58;2119733;84;27599;-60
2021/05/26 13:37:04;;;;;;;2.50;1.22;;;;;;;21.72;31.24;100039.52;2099091;83;28423;-60
2021/05/26 13:40:10;;;;;;;2.67;0.98;;;;;;;21.71;31.30;100040.05;2122784;83;31924;-60
2021/05/26 13:43:15;;;;;;;3.65;1.00;;;;;;;21.57;31.42;100040.55;2121192;83;32932;-60
2021/05/26 13:46:17;;;;;;;3.83;1.12;;;;;;;21.48;31.60;100040.45;2122000;83;30255;-60
2021/05/26 13:49:19;;;;;;;1.00;0.60;;;;;;;21.39;31.86;100040.86;2145724;82;27665;-60
2021/05/26 13:52:24;;;;;;;2.10;1.00;;;;;;;21.35;31.67;100038.09;2157875;82;29393;-60
2021/05/26 13:55:30;;;;;;;1.52;1.20;;;;;;;21.15;32.11;100041.44;2158657;82;32023;-60
2021/05/26 13:58:34;;;;;;;1.37;1.05;;;;;;;21.05;32.69;100031.11;2125224;82;30605;-60
2021/05/26 14:01:40;;;;;;;1.50;0.98;;;;;;;20.98;32.77;100032.70;2122218;82;29509;-60
2021/05/26 14:04:43;;;;;;;2.83;1.00;;;;;;;20.81;32.90;100028.41;2158881;82;27648;-60
2021/05/26 14:07:48;;;;;;;1.72;1.00;;;;;;;20.71;33.10;100027.05;2160298;82;29378;-60
2021/05/26 14:10:51;;;;;;;2.70;1.05;;;;;;;20.74;33.65;100031.36;2159160;82;27839;-60
2021/05/26 14:13:53;;;;;;;2.72;1.10;;;;;;;20.71;33.70;100021.60;2159884;82;34117;-60
2021/05/26 14:16:55;;;;;;;3.00;1.00;;;;;;;20.72;33.97;100023.84;2196618;81;29372;-60
2021/05/26 14:19:57;;;;;;;1.20;0.72;;;;;;;20.62;33.89;100022.51;2158618;82;27615;-59